Jefferson, GA

5:38 AM EST on February 25, 2017 (GMT -0500)
Stockton Farms | | Change Station
Active Advisory: Special Statement

Elev 801 ft 34.18 °N, 83.64 °W | Updated 11 seconds ago

Clear
Clear
57.4 °F
Feels Like 57.4 °F
N
0.0
Wind Variable Wind from SSE
Gusts 0.0 mph

Today
High -- | Low -- °F
--% Chance of Precip.
Yesterday
High -- | Low -- °F
Precip. -- in
Pressure 29.80 in
Visibility 10.0 miles
Clouds Scattered Clouds 5000 ft
Scattered Clouds 7500 ft
Dew Point 55 °F
Humidity 92%
Rainfall 0.00 in
Snow Depth Not available.
7:07 AM 6:27 PM
Waning Crescent, 2% visible
METAR KWDR 250835Z AUTO 20004KT 10SM SCT050 SCT075 18/13 A2980 RMK AO1 LTG DSNT N AND NW
Pressure 29.80 in
Visibility 10.0 miles
Clouds Scattered Clouds 5000 ft
Scattered Clouds 7500 ft
Dew Point 55 °F
Humidity 92%
Rainfall 0.00 in
Snow Depth Not available.
7:07 AM 6:27 PM
Waning Crescent, 2% visible
METAR KWDR 250835Z AUTO 20004KT 10SM SCT050 SCT075 18/13 A2980 RMK AO1 LTG DSNT N AND NW

Get Your Daily Forecast Email!

Thanks for signing up!

Be on the lookout for a verification email in your inbox.

You'll start receiving the daily forecast at 8 AM.

×

10-Day Weather Forecast

Almanac

Astronomy

Feb. 25, 2017 Rise Set
Actual Time
Civil Twilight
Nautical Twilight
Astronomical Twilight
Moon
Length of Visible Light
Length of Day
Tomorrow will be .
, % of the Moon is Illuminated

Today's Extremes

State Highs State Lows

Community

WunderPhotos

Upload Photos

1,962,540 photos uploaded!

WunderBlog® & News

Nearby

Air Quality

  Air Quality AQ Index Pollutant
Not available.

Snow Depth

Station Depth Elevation

Earthquake Activity

City Distance Mag. Time & Date
Minimum magnitude displayed is 2.5.

Coastal Water Temperatures

Place Temperature

Stations

Nearby Weather Stations

Station Location Temp. Windchill Dew Point Humidity Wind Precip. Elev Updated Type
                   

Watches & Warnings

Special Statement
Issued: 4:17 AM EST Feb. 25, 2017 – National Weather Service

... High fire danger conditions this afternoon into the evening
for parts of north and central Georgia due to strong winds...

Sustained winds of 15 to 20 mph can be expected along with gusts
of 25 to 30 mph. Relative humidities look to reach 20 to 30
percent for about 3 hours this afternoon.

With dry fuels... high fire danger conditions can be expected.

Please refer to your local burn permitting authorities
concerning whether you may burn outdoors. If you do burn
outside, use extreme caution.